sensor_id;sensor_type;location;lat;lon;timestamp;P1;durP1;ratioP1;P2;durP2;ratioP2
7761;SDS011;3925;48.636;9.516;2023-05-07T00:00:22;4.30;;;3.20;;
7761;SDS011;3925;48.636;9.516;2023-05-07T00:02:49;3.27;;;2.83;;
7761;SDS011;3925;48.636;9.516;2023-05-07T00:05:17;3.57;;;3.07;;
7761;SDS011;3925;48.636;9.516;2023-05-07T00:07:44;2.97;;;2.77;;
7761;SDS011;3925;48.636;9.516;2023-05-07T00:10:11;3.67;;;3.30;;
7761;SDS011;3925;48.636;9.516;2023-05-07T00:12:38;4.37;;;3.83;;
7761;SDS011;3925;48.636;9.516;2023-05-07T00:15:07;4.30;;;3.97;;
7761;SDS011;3925;48.636;9.516;2023-05-07T00:17:34;3.10;;;2.90;;
7761;SDS011;3925;48.636;9.516;2023-05-07T00:20:01;3.30;;;3.00;;
7761;SDS011;3925;48.636;9.516;2023-05-07T00:22:31;3.40;;;3.10;;
7761;SDS011;3925;48.636;9.516;2023-05-07T00:24:58;3.80;;;3.60;;
7761;SDS011;3925;48.636;9.516;2023-05-07T00:27:25;3.63;;;3.00;;
7761;SDS011;3925;48.636;9.516;2023-05-07T00:29:52;4.00;;;3.70;;
7761;SDS011;3925;48.636;9.516;2023-05-07T00:32:18;4.33;;;3.70;;
7761;SDS011;3925;48.636;9.516;2023-05-07T00:34:45;3.97;;;3.63;;
7761;SDS011;3925;48.636;9.516;2023-05-07T00:37:12;4.23;;;3.77;;
7761;SDS011;3925;48.636;9.516;2023-05-07T00:39:40;3.90;;;3.43;;
7761;SDS011;3925;48.636;9.516;2023-05-07T00:42:07;3.80;;;3.50;;
7761;SDS011;3925;48.636;9.516;2023-05-07T00:44:34;3.37;;;3.07;;
7761;SDS011;3925;48.636;9.516;2023-05-07T00:47:01;7.50;;;4.37;;
7761;SDS011;3925;48.636;9.516;2023-05-07T00:49:32;3.70;;;3.07;;
7761;SDS011;3925;48.636;9.516;2023-05-07T00:52:05;3.57;;;3.27;;
7761;SDS011;3925;48.636;9.516;2023-05-07T00:54:32;3.90;;;3.60;;
7761;SDS011;3925;48.636;9.516;2023-05-07T00:57:03;4.17;;;3.87;;
7761;SDS011;3925;48.636;9.516;2023-05-07T00:59:30;3.77;;;2.80;;
7761;SDS011;3925;48.636;9.516;2023-05-07T01:01:57;3.20;;;3.00;;
7761;SDS011;3925;48.636;9.516;2023-05-07T01:04:25;5.20;;;3.00;;
7761;SDS011;3925;48.636;9.516;2023-05-07T01:06:52;5.37;;;3.13;;
7761;SDS011;3925;48.636;9.516;2023-05-07T01:09:21;4.43;;;3.10;;
7761;SDS011;3925;48.636;9.516;2023-05-07T01:11:48;2.93;;;2.70;;
7761;SDS011;3925;48.636;9.516;2023-05-07T01:14:18;3.13;;;2.93;;
7761;SDS011;3925;48.636;9.516;2023-05-07T01:16:45;3.70;;;3.07;;
7761;SDS011;3925;48.636;9.516;2023-05-07T01:19:12;3.00;;;2.70;;
7761;SDS011;3925;48.636;9.516;2023-05-07T01:21:44;3.80;;;3.50;;
7761;SDS011;3925;48.636;9.516;2023-05-07T01:24:14;3.60;;;3.00;;
7761;SDS011;3925;48.636;9.516;2023-05-07T01:26:41;3.47;;;2.77;;
7761;SDS011;3925;48.636;9.516;2023-05-07T01:29:08;4.10;;;3.33;;
7761;SDS011;3925;48.636;9.516;2023-05-07T01:31:35;3.67;;;2.77;;
7761;SDS011;3925;48.636;9.516;2023-05-07T01:34:03;3.70;;;3.40;;
7761;SDS011;3925;48.636;9.516;2023-05-07T01:36:33;3.57;;;3.27;;
7761;SDS011;3925;48.636;9.516;2023-05-07T01:39:01;3.17;;;2.97;;
7761;SDS011;3925;48.636;9.516;2023-05-07T01:41:30;3.87;;;3.47;;
7761;SDS011;3925;48.636;9.516;2023-05-07T01:43:57;3.80;;;3.50;;
7761;SDS011;3925;48.636;9.516;2023-05-07T01:46:25;5.00;;;3.27;;
7761;SDS011;3925;48.636;9.516;2023-05-07T01:48:52;3.17;;;2.97;;
7761;SDS011;3925;48.636;9.516;2023-05-07T01:51:19;3.13;;;2.60;;
7761;SDS011;3925;48.636;9.516;2023-05-07T01:53:47;3.40;;;3.20;;
7761;SDS011;3925;48.636;9.516;2023-05-07T01:56:16;4.17;;;3.30;;
7761;SDS011;3925;48.636;9.516;2023-05-07T01:58:45;4.00;;;2.83;;
7761;SDS011;3925;48.636;9.516;2023-05-07T02:01:12;3.37;;;3.07;;
7761;SDS011;3925;48.636;9.516;2023-05-07T02:03:39;3.00;;;2.80;;
7761;SDS011;3925;48.636;9.516;2023-05-07T02:06:06;3.50;;;3.20;;
7761;SDS011;3925;48.636;9.516;2023-05-07T02:08:33;3.33;;;3.03;;
7761;SDS011;3925;48.636;9.516;2023-05-07T02:11:00;3.23;;;2.80;;
7761;SDS011;3925;48.636;9.516;2023-05-07T02:13:28;3.43;;;3.13;;
7761;SDS011;3925;48.636;9.516;2023-05-07T02:15:57;3.83;;;3.20;;
7761;SDS011;3925;48.636;9.516;2023-05-07T02:18:24;3.00;;;2.80;;
7761;SDS011;3925;48.636;9.516;2023-05-07T02:20:51;4.30;;;3.90;;
7761;SDS011;3925;48.636;9.516;2023-05-07T02:23:18;3.90;;;3.10;;
7761;SDS011;3925;48.636;9.516;2023-05-07T02:25:45;3.43;;;3.13;;
7761;SDS011;3925;48.636;9.516;2023-05-07T02:28:12;3.40;;;3.10;;
7761;SDS011;3925;48.636;9.516;2023-05-07T02:30:39;3.07;;;2.77;;
7761;SDS011;3925;48.636;9.516;2023-05-07T02:33:07;2.37;;;2.17;;
7761;SDS011;3925;48.636;9.516;2023-05-07T02:35:34;3.03;;;2.50;;
7761;SDS011;3925;48.636;9.516;2023-05-07T02:38:01;3.30;;;3.10;;
7761;SDS011;3925;48.636;9.516;2023-05-07T02:40:28;3.63;;;2.90;;
7761;SDS011;3925;48.636;9.516;2023-05-07T02:42:55;3.10;;;2.73;;
7761;SDS011;3925;48.636;9.516;2023-05-07T02:45:21;2.63;;;2.43;;
7761;SDS011;3925;48.636;9.516;2023-05-07T02:47:48;2.90;;;2.70;;
7761;SDS011;3925;48.636;9.516;2023-05-07T02:50:16;4.97;;;3.50;;
7761;SDS011;3925;48.636;9.516;2023-05-07T02:52:43;3.63;;;3.33;;
7761;SDS011;3925;48.636;9.516;2023-05-07T02:55:10;4.03;;;2.77;;
7761;SDS011;3925;48.636;9.516;2023-05-07T02:57:37;5.00;;;3.37;;
7761;SDS011;3925;48.636;9.516;2023-05-07T03:00:10;3.73;;;3.40;;
7761;SDS011;3925;48.636;9.516;2023-05-07T03:02:39;3.57;;;3.27;;
7761;SDS011;3925;48.636;9.516;2023-05-07T03:05:06;3.77;;;3.40;;
7761;SDS011;3925;48.636;9.516;2023-05-07T03:07:34;2.80;;;2.60;;
7761;SDS011;3925;48.636;9.516;2023-05-07T03:10:01;3.10;;;2.90;;
7761;SDS011;3925;48.636;9.516;2023-05-07T03:12:28;4.87;;;3.70;;
7761;SDS011;3925;48.636;9.516;2023-05-07T03:14:56;2.90;;;2.43;;
7761;SDS011;3925;48.636;9.516;2023-05-07T03:17:23;3.20;;;2.90;;
7761;SDS011;3925;48.636;9.516;2023-05-07T03:19:49;5.00;;;2.80;;
7761;SDS011;3925;48.636;9.516;2023-05-07T03:22:16;4.33;;;3.93;;
7761;SDS011;3925;48.636;9.516;2023-05-07T03:24:44;3.97;;;2.70;;
7761;SDS011;3925;48.636;9.516;2023-05-07T03:27:11;3.33;;;3.13;;
7761;SDS011;3925;48.636;9.516;2023-05-07T03:29:38;5.00;;;3.20;;
7761;SDS011;3925;48.636;9.516;2023-05-07T03:32:05;3.57;;;3.27;;
7761;SDS011;3925;48.636;9.516;2023-05-07T03:34:32;3.90;;;3.23;;
7761;SDS011;3925;48.636;9.516;2023-05-07T03:36:58;5.20;;;3.80;;
7761;SDS011;3925;48.636;9.516;2023-05-07T03:39:26;3.93;;;3.53;;
7761;SDS011;3925;48.636;9.516;2023-05-07T03:41:54;3.53;;;3.27;;
7761;SDS011;3925;48.636;9.516;2023-05-07T03:44:21;4.40;;;4.00;;
7761;SDS011;3925;48.636;9.516;2023-05-07T03:46:48;3.30;;;3.10;;
7761;SDS011;3925;48.636;9.516;2023-05-07T03:49:14;5.73;;;3.67;;
7761;SDS011;3925;48.636;9.516;2023-05-07T03:51:41;4.13;;;3.70;;
7761;SDS011;3925;48.636;9.516;2023-05-07T03:54:08;3.93;;;3.53;;
7761;SDS011;3925;48.636;9.516;2023-05-07T03:56:35;5.60;;;3.40;;
7761;SDS011;3925;48.636;9.516;2023-05-07T03:59:03;3.30;;;3.10;;
7761;SDS011;3925;48.636;9.516;2023-05-07T04:01:30;4.67;;;4.27;;
7761;SDS011;3925;48.636;9.516;2023-05-07T04:03:57;5.30;;;3.70;;
7761;SDS011;3925;48.636;9.516;2023-05-07T04:06:23;3.83;;;3.53;;
7761;SDS011;3925;48.636;9.516;2023-05-07T04:08:50;5.27;;;3.53;;
7761;SDS011;3925;48.636;9.516;2023-05-07T04:11:17;4.10;;;3.80;;
7761;SDS011;3925;48.636;9.516;2023-05-07T04:13:45;3.43;;;3.13;;
7761;SDS011;3925;48.636;9.516;2023-05-07T04:16:13;3.20;;;3.00;;
7761;SDS011;3925;48.636;9.516;2023-05-07T04:18:40;3.53;;;3.23;;
7761;SDS011;3925;48.636;9.516;2023-05-07T04:21:13;4.37;;;2.70;;
7761;SDS011;3925;48.636;9.516;2023-05-07T04:23:40;3.40;;;3.10;;
7761;SDS011;3925;48.636;9.516;2023-05-07T04:26:07;4.50;;;3.80;;
7761;SDS011;3925;48.636;9.516;2023-05-07T04:28:34;3.63;;;3.33;;
7761;SDS011;3925;48.636;9.516;2023-05-07T04:31:01;5.23;;;3.83;;
7761;SDS011;3925;48.636;9.516;2023-05-07T04:33:30;3.83;;;3.43;;
7761;SDS011;3925;48.636;9.516;2023-05-07T04:35:57;3.13;;;2.93;;
7761;SDS011;3925;48.636;9.516;2023-05-07T04:38:27;3.80;;;3.50;;
7761;SDS011;3925;48.636;9.516;2023-05-07T04:40:54;3.30;;;3.10;;
7761;SDS011;3925;48.636;9.516;2023-05-07T04:43:21;3.70;;;3.40;;
7761;SDS011;3925;48.636;9.516;2023-05-07T04:45:49;4.03;;;3.40;;
7761;SDS011;3925;48.636;9.516;2023-05-07T04:48:16;4.17;;;3.77;;
7761;SDS011;3925;48.636;9.516;2023-05-07T04:50:45;3.30;;;3.00;;
7761;SDS011;3925;48.636;9.516;2023-05-07T04:53:14;4.13;;;3.83;;
7761;SDS011;3925;48.636;9.516;2023-05-07T04:55:41;2.90;;;2.70;;
7761;SDS011;3925;48.636;9.516;2023-05-07T04:58:08;6.13;;;4.07;;
7761;SDS011;3925;48.636;9.516;2023-05-07T05:00:35;3.80;;;3.20;;
7761;SDS011;3925;48.636;9.516;2023-05-07T05:03:02;4.30;;;3.80;;
7761;SDS011;3925;48.636;9.516;2023-05-07T05:05:30;4.03;;;3.63;;
7761;SDS011;3925;48.636;9.516;2023-05-07T05:07:58;3.73;;;3.43;;
7761;SDS011;3925;48.636;9.516;2023-05-07T05:10:25;5.47;;;3.57;;
7761;SDS011;3925;48.636;9.516;2023-05-07T05:12:51;5.30;;;3.40;;
7761;SDS011;3925;48.636;9.516;2023-05-07T05:15:18;2.87;;;2.67;;
7761;SDS011;3925;48.636;9.516;2023-05-07T05:17:45;3.70;;;2.83;;
7761;SDS011;3925;48.636;9.516;2023-05-07T05:20:12;2.47;;;2.27;;
7761;SDS011;3925;48.636;9.516;2023-05-07T05:22:39;2.70;;;2.30;;
7761;SDS011;3925;48.636;9.516;2023-05-07T05:25:08;2.33;;;2.13;;
7761;SDS011;3925;48.636;9.516;2023-05-07T05:27:35;2.30;;;2.10;;
7761;SDS011;3925;48.636;9.516;2023-05-07T05:30:01;2.60;;;2.33;;
7761;SDS011;3925;48.636;9.516;2023-05-07T05:32:30;2.40;;;2.20;;
7761;SDS011;3925;48.636;9.516;2023-05-07T05:34:57;3.03;;;2.10;;
7761;SDS011;3925;48.636;9.516;2023-05-07T05:37:24;2.20;;;2.10;;
7761;SDS011;3925;48.636;9.516;2023-05-07T05:39:51;2.30;;;2.10;;
7761;SDS011;3925;48.636;9.516;2023-05-07T05:42:21;2.00;;;1.90;;
7761;SDS011;3925;48.636;9.516;2023-05-07T05:44:47;2.10;;;2.00;;
7761;SDS011;3925;48.636;9.516;2023-05-07T05:47:14;1.90;;;1.67;;
7761;SDS011;3925;48.636;9.516;2023-05-07T05:49:41;2.37;;;2.17;;
7761;SDS011;3925;48.636;9.516;2023-05-07T05:52:08;2.23;;;2.03;;
7761;SDS011;3925;48.636;9.516;2023-05-07T05:54:35;2.00;;;1.80;;
7761;SDS011;3925;48.636;9.516;2023-05-07T05:57:02;1.90;;;1.80;;
7761;SDS011;3925;48.636;9.516;2023-05-07T05:59:32;2.70;;;2.10;;
7761;SDS011;3925;48.636;9.516;2023-05-07T06:01:59;2.70;;;1.47;;
7761;SDS011;3925;48.636;9.516;2023-05-07T06:04:26;4.03;;;2.17;;
7761;SDS011;3925;48.636;9.516;2023-05-07T06:06:52;1.60;;;1.50;;
7761;SDS011;3925;48.636;9.516;2023-05-07T06:09:19;1.63;;;1.53;;
7761;SDS011;3925;48.636;9.516;2023-05-07T06:11:46;1.60;;;1.50;;
7761;SDS011;3925;48.636;9.516;2023-05-07T06:14:13;2.03;;;1.87;;
7761;SDS011;3925;48.636;9.516;2023-05-07T06:16:41;1.63;;;1.53;;
7761;SDS011;3925;48.636;9.516;2023-05-07T06:19:08;2.60;;;2.00;;
7761;SDS011;3925;48.636;9.516;2023-05-07T06:21:35;1.80;;;1.70;;
7761;SDS011;3925;48.636;9.516;2023-05-07T06:24:01;1.77;;;1.67;;
7761;SDS011;3925;48.636;9.516;2023-05-07T06:26:28;3.43;;;1.80;;
7761;SDS011;3925;48.636;9.516;2023-05-07T06:28:55;1.70;;;1.60;;
7761;SDS011;3925;48.636;9.516;2023-05-07T06:31:22;3.00;;;1.63;;
7761;SDS011;3925;48.636;9.516;2023-05-07T06:33:50;1.70;;;1.60;;
7761;SDS011;3925;48.636;9.516;2023-05-07T06:36:17;3.60;;;1.73;;
7761;SDS011;3925;48.636;9.516;2023-05-07T06:38:44;1.90;;;1.70;;
7761;SDS011;3925;48.636;9.516;2023-05-07T06:41:11;3.00;;;1.80;;
7761;SDS011;3925;48.636;9.516;2023-05-07T06:43:38;3.30;;;2.10;;
7761;SDS011;3925;48.636;9.516;2023-05-07T06:46:04;2.50;;;1.93;;
7761;SDS011;3925;48.636;9.516;2023-05-07T06:48:31;2.30;;;1.60;;
7761;SDS011;3925;48.636;9.516;2023-05-07T06:50:59;3.23;;;1.90;;
7761;SDS011;3925;48.636;9.516;2023-05-07T06:53:26;2.23;;;2.03;;
7761;SDS011;3925;48.636;9.516;2023-05-07T06:55:54;2.93;;;1.70;;
7761;SDS011;3925;48.636;9.516;2023-05-07T06:58:20;1.47;;;1.33;;
7761;SDS011;3925;48.636;9.516;2023-05-07T07:00:47;1.53;;;1.43;;
7761;SDS011;3925;48.636;9.516;2023-05-07T07:03:14;2.00;;;1.70;;
7761;SDS011;3925;48.636;9.516;2023-05-07T07:05:41;1.90;;;1.60;;
7761;SDS011;3925;48.636;9.516;2023-05-07T07:08:09;3.57;;;1.30;;
7761;SDS011;3925;48.636;9.516;2023-05-07T07:10:36;1.30;;;1.20;;
7761;SDS011;3925;48.636;9.516;2023-05-07T07:13:03;1.63;;;1.50;;
7761;SDS011;3925;48.636;9.516;2023-05-07T07:15:30;2.40;;;1.57;;
7761;SDS011;3925;48.636;9.516;2023-05-07T07:17:57;1.80;;;1.50;;
7761;SDS011;3925;48.636;9.516;2023-05-07T07:20:24;3.10;;;1.97;;
7761;SDS011;3925;48.636;9.516;2023-05-07T07:22:50;2.23;;;1.80;;
7761;SDS011;3925;48.636;9.516;2023-05-07T07:25:19;2.00;;;1.80;;
7761;SDS011;3925;48.636;9.516;2023-05-07T07:27:45;1.83;;;1.47;;
7761;SDS011;3925;48.636;9.516;2023-05-07T07:30:12;2.20;;;1.97;;
7761;SDS011;3925;48.636;9.516;2023-05-07T07:32:39;3.27;;;2.20;;
7761;SDS011;3925;48.636;9.516;2023-05-07T07:35:06;1.80;;;1.60;;
7761;SDS011;3925;48.636;9.516;2023-05-07T07:37:34;2.07;;;1.87;;
7761;SDS011;3925;48.636;9.516;2023-05-07T07:40:00;1.73;;;1.63;;
7761;SDS011;3925;48.636;9.516;2023-05-07T07:42:29;1.60;;;1.50;;
7761;SDS011;3925;48.636;9.516;2023-05-07T07:44:56;2.10;;;2.00;;
7761;SDS011;3925;48.636;9.516;2023-05-07T07:47:23;2.90;;;2.47;;
7761;SDS011;3925;48.636;9.516;2023-05-07T07:49:50;3.13;;;1.93;;
7761;SDS011;3925;48.636;9.516;2023-05-07T07:52:17;1.80;;;1.60;;
7761;SDS011;3925;48.636;9.516;2023-05-07T07:54:45;2.57;;;2.20;;
7761;SDS011;3925;48.636;9.516;2023-05-07T07:57:11;2.20;;;2.00;;
7761;SDS011;3925;48.636;9.516;2023-05-07T07:59:41;2.40;;;2.20;;
7761;SDS011;3925;48.636;9.516;2023-05-07T08:02:08;3.30;;;2.47;;
7761;SDS011;3925;48.636;9.516;2023-05-07T08:04:35;3.30;;;1.93;;
7761;SDS011;3925;48.636;9.516;2023-05-07T08:07:02;2.53;;;2.33;;
7761;SDS011;3925;48.636;9.516;2023-05-07T08:09:29;2.70;;;1.80;;
7761;SDS011;3925;48.636;9.516;2023-05-07T08:11:56;2.23;;;1.87;;
7761;SDS011;3925;48.636;9.516;2023-05-07T08:14:23;4.17;;;2.00;;
7761;SDS011;3925;48.636;9.516;2023-05-07T08:16:51;2.53;;;2.33;;
7761;SDS011;3925;48.636;9.516;2023-05-07T08:19:18;3.13;;;1.77;;
7761;SDS011;3925;48.636;9.516;2023-05-07T08:21:45;1.90;;;1.80;;
7761;SDS011;3925;48.636;9.516;2023-05-07T08:24:12;1.80;;;1.70;;
7761;SDS011;3925;48.636;9.516;2023-05-07T08:26:39;2.37;;;2.13;;
7761;SDS011;3925;48.636;9.516;2023-05-07T08:29:06;3.70;;;2.00;;
7761;SDS011;3925;48.636;9.516;2023-05-07T08:31:33;2.10;;;1.37;;
7761;SDS011;3925;48.636;9.516;2023-05-07T08:34:03;1.93;;;1.70;;
7761;SDS011;3925;48.636;9.516;2023-05-07T08:36:30;2.03;;;1.83;;
7761;SDS011;3925;48.636;9.516;2023-05-07T08:38:57;1.70;;;1.50;;
7761;SDS011;3925;48.636;9.516;2023-05-07T08:41:24;2.07;;;1.93;;
7761;SDS011;3925;48.636;9.516;2023-05-07T08:43:51;2.27;;;2.10;;
7761;SDS011;3925;48.636;9.516;2023-05-07T08:46:18;2.87;;;1.50;;
7761;SDS011;3925;48.636;9.516;2023-05-07T08:48:47;3.10;;;2.03;;
7761;SDS011;3925;48.636;9.516;2023-05-07T08:51:17;2.23;;;1.40;;
7761;SDS011;3925;48.636;9.516;2023-05-07T08:53:46;1.70;;;1.60;;
7761;SDS011;3925;48.636;9.516;2023-05-07T08:56:15;2.10;;;1.57;;
7761;SDS011;3925;48.636;9.516;2023-05-07T08:58:43;1.93;;;1.50;;
7761;SDS011;3925;48.636;9.516;2023-05-07T09:01:12;1.60;;;1.50;;
7761;SDS011;3925;48.636;9.516;2023-05-07T09:03:40;2.07;;;1.67;;
7761;SDS011;3925;48.636;9.516;2023-05-07T09:06:10;1.30;;;1.20;;
7761;SDS011;3925;48.636;9.516;2023-05-07T09:08:38;1.40;;;1.30;;
7761;SDS011;3925;48.636;9.516;2023-05-07T09:11:05;1.70;;;1.50;;
7761;SDS011;3925;48.636;9.516;2023-05-07T09:13:32;1.07;;;0.97;;
7761;SDS011;3925;48.636;9.516;2023-05-07T09:15:59;1.93;;;1.73;;
7761;SDS011;3925;48.636;9.516;2023-05-07T09:18:40;2.20;;;1.60;;
7761;SDS011;3925;48.636;9.516;2023-05-07T09:21:09;2.93;;;1.53;;
7761;SDS011;3925;48.636;9.516;2023-05-07T09:23:36;2.57;;;1.20;;
7761;SDS011;3925;48.636;9.516;2023-05-07T09:26:04;1.70;;;1.60;;
7761;SDS011;3925;48.636;9.516;2023-05-07T09:28:37;1.47;;;1.37;;
7761;SDS011;3925;48.636;9.516;2023-05-07T09:31:05;1.53;;;1.43;;
7761;SDS011;3925;48.636;9.516;2023-05-07T09:33:32;3.87;;;1.70;;
7761;SDS011;3925;48.636;9.516;2023-05-07T09:36:01;1.30;;;1.07;;
7761;SDS011;3925;48.636;9.516;2023-05-07T09:38:30;2.40;;;1.27;;
7761;SDS011;3925;48.636;9.516;2023-05-07T09:41:01;1.43;;;1.30;;
7761;SDS011;3925;48.636;9.516;2023-05-07T09:43:32;2.00;;;1.80;;
7761;SDS011;3925;48.636;9.516;2023-05-07T09:46:01;1.67;;;1.57;;
7761;SDS011;3925;48.636;9.516;2023-05-07T09:48:29;2.07;;;1.20;;
7761;SDS011;3925;48.636;9.516;2023-05-07T09:50:57;1.47;;;1.37;;
7761;SDS011;3925;48.636;9.516;2023-05-07T09:53:29;1.20;;;1.10;;
7761;SDS011;3925;48.636;9.516;2023-05-07T09:55:57;1.63;;;1.30;;
7761;SDS011;3925;48.636;9.516;2023-05-07T09:58:25;1.87;;;1.40;;
7761;SDS011;3925;48.636;9.516;2023-05-07T10:00:53;2.30;;;1.23;;
7761;SDS011;3925;48.636;9.516;2023-05-07T10:03:22;1.90;;;1.30;;
7761;SDS011;3925;48.636;9.516;2023-05-07T10:05:53;1.43;;;1.30;;
7761;SDS011;3925;48.636;9.516;2023-05-07T10:08:21;2.30;;;1.43;;
7761;SDS011;3925;48.636;9.516;2023-05-07T10:10:48;1.57;;;1.27;;
7761;SDS011;3925;48.636;9.516;2023-05-07T10:13:16;2.67;;;1.57;;
7761;SDS011;3925;48.636;9.516;2023-05-07T10:15:45;1.70;;;1.30;;
7761;SDS011;3925;48.636;9.516;2023-05-07T10:18:14;1.47;;;1.13;;
7761;SDS011;3925;48.636;9.516;2023-05-07T10:20:42;1.33;;;1.23;;
7761;SDS011;3925;48.636;9.516;2023-05-07T10:23:13;1.33;;;1.23;;
7761;SDS011;3925;48.636;9.516;2023-05-07T10:25:43;2.23;;;1.50;;
7761;SDS011;3925;48.636;9.516;2023-05-07T10:28:10;1.63;;;1.53;;
7761;SDS011;3925;48.636;9.516;2023-05-07T10:30:42;1.53;;;1.33;;
7761;SDS011;3925;48.636;9.516;2023-05-07T10:33:21;1.50;;;1.40;;
7761;SDS011;3925;48.636;9.516;2023-05-07T10:35:51;3.33;;;1.20;;
7761;SDS011;3925;48.636;9.516;2023-05-07T10:38:23;5.43;;;1.70;;
7761;SDS011;3925;48.636;9.516;2023-05-07T10:40:51;3.30;;;1.50;;
7761;SDS011;3925;48.636;9.516;2023-05-07T10:43:18;1.33;;;1.23;;
7761;SDS011;3925;48.636;9.516;2023-05-07T10:45:49;4.37;;;1.60;;
7761;SDS011;3925;48.636;9.516;2023-05-07T10:48:39;1.63;;;1.53;;
7761;SDS011;3925;48.636;9.516;2023-05-07T10:51:36;1.60;;;1.50;;
7761;SDS011;3925;48.636;9.516;2023-05-07T10:54:19;3.03;;;1.47;;
7761;SDS011;3925;48.636;9.516;2023-05-07T10:56:47;1.40;;;1.30;;
7761;SDS011;3925;48.636;9.516;2023-05-07T10:59:34;1.40;;;1.30;;
7761;SDS011;3925;48.636;9.516;2023-05-07T11:02:06;1.40;;;1.30;;
7761;SDS011;3925;48.636;9.516;2023-05-07T11:04:37;1.50;;;1.40;;
7761;SDS011;3925;48.636;9.516;2023-05-07T11:07:21;2.10;;;1.50;;
7761;SDS011;3925;48.636;9.516;2023-05-07T11:10:01;1.70;;;1.60;;
7761;SDS011;3925;48.636;9.516;2023-05-07T11:15:38;2.43;;;2.20;;
7761;SDS011;3925;48.636;9.516;2023-05-07T11:18:07;3.20;;;1.80;;
7761;SDS011;3925;48.636;9.516;2023-05-07T11:20:45;3.13;;;2.10;;
7761;SDS011;3925;48.636;9.516;2023-05-07T11:26:42;2.87;;;2.27;;
7761;SDS011;3925;48.636;9.516;2023-05-07T11:29:13;1.77;;;1.67;;
7761;SDS011;3925;48.636;9.516;2023-05-07T11:31:41;2.27;;;1.90;;
7761;SDS011;3925;48.636;9.516;2023-05-07T11:34:08;2.20;;;1.60;;
7761;SDS011;3925;48.636;9.516;2023-05-07T11:36:42;2.70;;;1.60;;
7761;SDS011;3925;48.636;9.516;2023-05-07T11:39:24;3.77;;;1.70;;
7761;SDS011;3925;48.636;9.516;2023-05-07T11:41:55;1.67;;;1.53;;
7761;SDS011;3925;48.636;9.516;2023-05-07T11:44:22;2.03;;;1.53;;
7761;SDS011;3925;48.636;9.516;2023-05-07T11:46:48;2.17;;;1.97;;
7761;SDS011;3925;48.636;9.516;2023-05-07T11:49:16;2.90;;;2.07;;
7761;SDS011;3925;48.636;9.516;2023-05-07T11:51:45;2.20;;;1.17;;
7761;SDS011;3925;48.636;9.516;2023-05-07T11:54:15;2.23;;;1.90;;
7761;SDS011;3925;48.636;9.516;2023-05-07T11:56:43;2.67;;;2.27;;
7761;SDS011;3925;48.636;9.516;2023-05-07T11:59:11;1.97;;;1.87;;
7761;SDS011;3925;48.636;9.516;2023-05-07T12:01:37;3.50;;;2.10;;
7761;SDS011;3925;48.636;9.516;2023-05-07T12:04:04;2.20;;;2.00;;
7761;SDS011;3925;48.636;9.516;2023-05-07T12:06:35;2.60;;;2.27;;
7761;SDS011;3925;48.636;9.516;2023-05-07T12:09:05;3.40;;;1.90;;
7761;SDS011;3925;48.636;9.516;2023-05-07T12:11:36;2.93;;;2.10;;
7761;SDS011;3925;48.636;9.516;2023-05-07T12:14:04;3.07;;;2.10;;
7761;SDS011;3925;48.636;9.516;2023-05-07T12:16:31;4.20;;;2.50;;
7761;SDS011;3925;48.636;9.516;2023-05-07T12:19:00;2.53;;;2.33;;
7761;SDS011;3925;48.636;9.516;2023-05-07T12:21:27;2.10;;;2.00;;
7761;SDS011;3925;48.636;9.516;2023-05-07T12:23:54;2.60;;;2.40;;
7761;SDS011;3925;48.636;9.516;2023-05-07T12:26:23;2.97;;;2.67;;
7761;SDS011;3925;48.636;9.516;2023-05-07T12:28:50;2.83;;;2.50;;
7761;SDS011;3925;48.636;9.516;2023-05-07T12:31:21;3.10;;;2.80;;
7761;SDS011;3925;48.636;9.516;2023-05-07T12:33:48;5.13;;;4.13;;
7761;SDS011;3925;48.636;9.516;2023-05-07T12:36:15;6.57;;;4.13;;
7761;SDS011;3925;48.636;9.516;2023-05-07T12:38:43;4.50;;;4.17;;
7761;SDS011;3925;48.636;9.516;2023-05-07T12:41:10;3.57;;;3.00;;
7761;SDS011;3925;48.636;9.516;2023-05-07T12:43:39;5.37;;;3.67;;
7761;SDS011;3925;48.636;9.516;2023-05-07T12:46:09;3.70;;;2.87;;
7761;SDS011;3925;48.636;9.516;2023-05-07T12:48:43;2.37;;;2.17;;
7761;SDS011;3925;48.636;9.516;2023-05-07T12:51:11;3.30;;;2.00;;
7761;SDS011;3925;48.636;9.516;2023-05-07T12:53:40;3.43;;;2.90;;
7761;SDS011;3925;48.636;9.516;2023-05-07T12:56:08;3.07;;;2.87;;
7761;SDS011;3925;48.636;9.516;2023-05-07T12:58:35;4.77;;;3.57;;
7761;SDS011;3925;48.636;9.516;2023-05-07T13:01:05;4.90;;;4.20;;
7761;SDS011;3925;48.636;9.516;2023-05-07T13:03:36;3.60;;;3.40;;
7761;SDS011;3925;48.636;9.516;2023-05-07T13:06:05;6.53;;;4.30;;
7761;SDS011;3925;48.636;9.516;2023-05-07T13:08:35;4.90;;;3.97;;
7761;SDS011;3925;48.636;9.516;2023-05-07T13:11:06;6.43;;;5.13;;
7761;SDS011;3925;48.636;9.516;2023-05-07T13:13:34;5.00;;;4.50;;
7761;SDS011;3925;48.636;9.516;2023-05-07T13:16:02;4.83;;;3.70;;
7761;SDS011;3925;48.636;9.516;2023-05-07T13:18:31;5.20;;;4.67;;
7761;SDS011;3925;48.636;9.516;2023-05-07T13:20:59;7.40;;;5.97;;
7761;SDS011;3925;48.636;9.516;2023-05-07T13:23:27;9.30;;;5.13;;
7761;SDS011;3925;48.636;9.516;2023-05-07T13:25:53;9.50;;;6.47;;
7761;SDS011;3925;48.636;9.516;2023-05-07T13:28:22;9.23;;;4.60;;
7761;SDS011;3925;48.636;9.516;2023-05-07T13:30:49;5.87;;;5.27;;
7761;SDS011;3925;48.636;9.516;2023-05-07T13:33:18;5.10;;;4.57;;
7761;SDS011;3925;48.636;9.516;2023-05-07T13:35:45;5.27;;;4.33;;
7761;SDS011;3925;48.636;9.516;2023-05-07T13:38:12;6.27;;;5.03;;
7761;SDS011;3925;48.636;9.516;2023-05-07T13:40:40;9.13;;;8.23;;
7761;SDS011;3925;48.636;9.516;2023-05-07T13:43:07;12.03;;;8.13;;
7761;SDS011;3925;48.636;9.516;2023-05-07T13:45:35;6.60;;;6.00;;
7761;SDS011;3925;48.636;9.516;2023-05-07T13:48:02;5.03;;;4.53;;
7761;SDS011;3925;48.636;9.516;2023-05-07T13:50:31;5.33;;;4.83;;
7761;SDS011;3925;48.636;9.516;2023-05-07T13:52:58;8.13;;;4.40;;
7761;SDS011;3925;48.636;9.516;2023-05-07T13:55:24;4.87;;;3.83;;
7761;SDS011;3925;48.636;9.516;2023-05-07T13:57:55;3.23;;;3.03;;
7761;SDS011;3925;48.636;9.516;2023-05-07T14:00:24;3.67;;;3.37;;
7761;SDS011;3925;48.636;9.516;2023-05-07T14:02:51;3.43;;;2.53;;
7761;SDS011;3925;48.636;9.516;2023-05-07T14:05:19;3.17;;;2.97;;
7761;SDS011;3925;48.636;9.516;2023-05-07T14:07:49;3.20;;;2.90;;
7761;SDS011;3925;48.636;9.516;2023-05-07T14:10:18;2.23;;;2.13;;
7761;SDS011;3925;48.636;9.516;2023-05-07T14:12:45;6.03;;;2.53;;
7761;SDS011;3925;48.636;9.516;2023-05-07T14:15:12;3.47;;;2.10;;
7761;SDS011;3925;48.636;9.516;2023-05-07T14:17:41;3.53;;;2.80;;
7761;SDS011;3925;48.636;9.516;2023-05-07T14:20:08;4.00;;;2.50;;
7761;SDS011;3925;48.636;9.516;2023-05-07T14:22:35;6.70;;;2.83;;
7761;SDS011;3925;48.636;9.516;2023-05-07T14:25:04;7.63;;;2.87;;
7761;SDS011;3925;48.636;9.516;2023-05-07T14:27:32;2.57;;;2.17;;
7761;SDS011;3925;48.636;9.516;2023-05-07T14:29:59;2.63;;;2.40;;
7761;SDS011;3925;48.636;9.516;2023-05-07T14:32:26;3.10;;;2.23;;
7761;SDS011;3925;48.636;9.516;2023-05-07T14:34:53;2.47;;;2.27;;
7761;SDS011;3925;48.636;9.516;2023-05-07T14:37:19;3.13;;;2.67;;
7761;SDS011;3925;48.636;9.516;2023-05-07T14:39:46;4.40;;;2.20;;
7761;SDS011;3925;48.636;9.516;2023-05-07T14:42:14;2.83;;;2.20;;
7761;SDS011;3925;48.636;9.516;2023-05-07T14:44:41;2.90;;;2.43;;
7761;SDS011;3925;48.636;9.516;2023-05-07T14:47:10;2.87;;;2.50;;
7761;SDS011;3925;48.636;9.516;2023-05-07T14:49:37;3.20;;;2.53;;
7761;SDS011;3925;48.636;9.516;2023-05-07T14:52:04;2.90;;;2.37;;
7761;SDS011;3925;48.636;9.516;2023-05-07T14:54:33;3.13;;;2.60;;
7761;SDS011;3925;48.636;9.516;2023-05-07T14:57:00;3.20;;;2.90;;
7761;SDS011;3925;48.636;9.516;2023-05-07T14:59:28;3.63;;;2.77;;
7761;SDS011;3925;48.636;9.516;2023-05-07T15:01:55;2.80;;;2.50;;
7761;SDS011;3925;48.636;9.516;2023-05-07T15:04:23;2.73;;;2.53;;
7761;SDS011;3925;48.636;9.516;2023-05-07T15:06:50;3.47;;;3.17;;
7761;SDS011;3925;48.636;9.516;2023-05-07T15:09:18;3.30;;;2.90;;
7761;SDS011;3925;48.636;9.516;2023-05-07T15:11:45;5.63;;;2.80;;
7761;SDS011;3925;48.636;9.516;2023-05-07T15:14:12;3.70;;;2.87;;
7761;SDS011;3925;48.636;9.516;2023-05-07T15:16:40;4.43;;;2.80;;
7761;SDS011;3925;48.636;9.516;2023-05-07T15:19:07;2.50;;;2.30;;
7761;SDS011;3925;48.636;9.516;2023-05-07T15:21:34;2.70;;;2.50;;
7761;SDS011;3925;48.636;9.516;2023-05-07T15:24:01;3.00;;;2.70;;
7761;SDS011;3925;48.636;9.516;2023-05-07T15:26:29;3.37;;;2.37;;